Time;durP1;ratioP1;P1;durP2;ratioP2;P2;SDS_P1;SDS_P2;PMS_P1;PMS_P2;Temp;Humidity;BMP_temperature;BMP_pressure;BME280_temperature;BME280_humidity;BME280_pressure;Samples;Min_cycle;Max_cycle;Signal;HPM_P1;HPM_P2
2022/06/09 00:01:14;;;;;;;30.40;28.05;;;;;;;14.31;100.00;100408.28;5011156;28;20042;-84
2022/06/09 00:03:44;;;;;;;29.42;27.13;;;;;;;14.17;100.00;100406.91;5005211;28;20137;-84
2022/06/09 00:06:12;;;;;;;29.75;27.33;;;;;;;14.01;100.00;100402.31;4999613;28;20050;-84
2022/06/09 00:08:43;;;;;;;30.40;28.23;;;;;;;14.27;100.00;100406.31;5004339;28;20104;-84
2022/06/09 00:11:15;;;;;;;30.27;27.98;;;;;;;14.18;100.00;100414.69;5006270;28;20050;-83
2022/06/09 00:13:44;;;;;;;31.42;29.02;;;;;;;14.28;100.00;100416.75;4995810;28;20065;-84
2022/06/09 00:16:13;;;;;;;29.83;27.52;;;;;;;14.36;100.00;100389.66;5011219;28;20056;-84
2022/06/09 00:18:40;;;;;;;29.65;27.25;;;;;;;14.25;100.00;100395.88;5008157;28;20050;-85
2022/06/09 00:21:07;;;;;;;29.00;26.70;;;;;;;13.86;100.00;100386.81;5005331;28;20125;-86
2022/06/09 00:23:35;;;;;;;30.05;27.65;;;;;;;14.13;100.00;100390.56;5011971;28;20052;-87
2022/06/09 00:26:02;;;;;;;29.38;26.98;;;;;;;13.73;100.00;100383.31;5006647;28;20050;-85
2022/06/09 00:28:29;;;;;;;31.67;29.08;;;;;;;14.16;100.00;100387.41;4995567;28;20053;-85
2022/06/09 00:30:57;;;;;;;29.77;27.23;;;;;;;14.27;100.00;100384.94;5007021;28;20068;-86
2022/06/09 00:33:24;;;;;;;29.95;27.75;;;;;;;14.39;100.00;100375.81;5002999;28;20057;-85
2022/06/09 00:35:51;;;;;;;28.90;26.70;;;;;;;13.97;100.00;100388.63;5008334;28;20042;-86
2022/06/09 00:38:18;;;;;;;30.33;28.02;;;;;;;13.73;100.00;100391.31;5006775;28;20049;-86
2022/06/09 00:40:45;;;;;;;32.00;29.60;;;;;;;13.89;100.00;100383.66;4999535;28;20061;-86
2022/06/09 00:43:12;;;;;;;31.42;28.85;;;;;;;14.16;100.00;100389.25;5012200;28;20054;-86
2022/06/09 00:45:42;;;;;;;32.38;29.50;;;;;;;14.23;100.00;100376.59;5008739;28;20394;-86
2022/06/09 00:48:21;;;;;;;31.13;28.63;;;;;;;14.17;100.00;100378.34;5008765;28;20449;-86
2022/06/09 00:50:51;;;;;;;30.75;28.40;;;;;;;13.85;100.00;100383.31;5009212;28;20064;-86
2022/06/09 00:53:23;;;;;;;35.17;32.50;;;;;;;14.17;100.00;100382.88;5005238;28;20561;-86
2022/06/09 00:55:50;;;;;;;33.63;30.95;;;;;;;14.24;100.00;100380.88;5005747;28;20066;-86
2022/06/09 00:58:21;;;;;;;31.90;29.63;;;;;;;14.23;100.00;100381.94;5016924;28;20045;-86
2022/06/09 01:00:52;;;;;;;31.50;29.05;;;;;;;14.30;100.00;100389.78;4998693;28;20069;-86
2022/06/09 01:03:24;;;;;;;31.55;29.15;;;;;;;14.18;100.00;100397.84;5008903;28;20076;-86
2022/06/09 01:05:54;;;;;;;32.75;30.38;;;;;;;14.38;100.00;100392.09;5008943;28;20046;-85
2022/06/09 01:08:22;;;;;;;31.17;28.70;;;;;;;14.23;100.00;100386.47;5005416;28;20093;-85
2022/06/09 01:10:49;;;;;;;31.15;28.67;;;;;;;14.38;100.00;100378.75;5011293;28;20064;-85
2022/06/09 01:13:16;;;;;;;30.27;28.20;;;;;;;14.32;100.00;100383.16;5015637;28;20478;-84
2022/06/09 01:15:55;;;;;;;31.23;28.60;;;;;;;14.43;100.00;100378.81;5006318;28;20069;-83
2022/06/09 01:18:35;;;;;;;30.83;28.38;;;;;;;14.42;100.00;100363.84;5008460;28;20395;-84
2022/06/09 01:21:11;;;;;;;33.15;30.65;;;;;;;14.20;100.00;100369.84;5008072;28;20050;-83
2022/06/09 01:24:21;;;;;;;33.63;31.05;;;;;;;14.58;100.00;100368.47;5014320;28;20050;-83
2022/06/09 01:27:17;;;;;;;33.50;30.75;;;;;;;14.36;100.00;100370.94;4984128;28;20064;-83
2022/06/09 01:29:49;;;;;;;32.88;30.38;;;;;;;14.82;100.00;100369.09;4986773;28;20054;-83
2022/06/09 01:32:23;;;;;;;36.07;33.57;;;;;;;14.97;100.00;100375.75;5001809;28;20410;-83
2022/06/09 01:35:08;;;;;;;33.80;31.10;;;;;;;14.74;100.00;100371.38;5010036;28;20049;-84
2022/06/09 01:37:39;;;;;;;35.13;32.15;;;;;;;14.59;100.00;100382.63;5011937;28;20049;-84
2022/06/09 01:40:09;;;;;;;31.48;29.02;;;;;;;14.61;100.00;100378.66;5009127;28;20053;-83
2022/06/09 01:42:38;;;;;;;32.05;29.85;;;;;;;14.38;100.00;100390.22;5002928;28;20542;-83
2022/06/09 01:45:10;;;;;;;31.63;29.13;;;;;;;14.29;100.00;100385.50;5002736;28;20054;-83
2022/06/09 01:47:44;;;;;;;31.45;28.85;;;;;;;14.56;100.00;100386.59;5012999;28;20049;-83
2022/06/09 01:50:18;;;;;;;32.10;29.40;;;;;;;14.87;100.00;100387.91;5005778;28;20050;-83
2022/06/09 01:52:47;;;;;;;32.17;29.58;;;;;;;14.72;100.00;100397.53;5005925;28;20482;-83
2022/06/09 01:55:19;;;;;;;32.88;30.27;;;;;;;14.35;100.00;100405.94;5007972;28;20363;-84
2022/06/09 01:57:50;;;;;;;33.15;30.65;;;;;;;14.62;100.00;100398.19;5001041;28;20046;-84
2022/06/09 02:05:25;;;;;;;33.75;31.02;;;;;;;15.31;100.00;100397.94;5007121;28;20499;-84
2022/06/09 02:07:56;;;;;;;33.42;30.70;;;;;;;15.08;100.00;100402.44;5009596;28;20058;-85
2022/06/09 02:10:30;;;;;;;34.38;31.73;;;;;;;15.18;100.00;100409.00;5002832;28;20046;-85
2022/06/09 02:13:02;;;;;;;35.08;31.95;;;;;;;15.19;100.00;100402.56;5005114;28;20057;-86
2022/06/09 02:15:34;;;;;;;40.30;37.13;;;;;;;15.16;100.00;100405.75;5007435;28;20046;-86
2022/06/09 02:18:07;;;;;;;36.33;33.45;;;;;;;15.16;100.00;100405.75;5001244;28;20493;-85
2022/06/09 02:20:41;;;;;;;34.80;32.30;;;;;;;15.13;100.00;100407.06;5016949;28;20050;-86
2022/06/09 02:23:09;;;;;;;32.25;29.85;;;;;;;14.96;100.00;100412.41;5004733;28;20061;-86
2022/06/09 02:25:36;;;;;;;32.92;30.42;;;;;;;15.20;100.00;100410.38;5005572;28;20050;-84
2022/06/09 02:28:02;;;;;;;36.70;32.95;;;;;;;15.37;100.00;100413.06;5002615;28;20380;-85
2022/06/09 02:30:29;;;;;;;32.65;29.90;;;;;;;14.88;100.00;100410.09;5008374;28;20049;-84
2022/06/09 02:32:56;;;;;;;34.35;31.35;;;;;;;15.28;100.00;100406.47;5008554;28;20433;-85
2022/06/09 02:35:23;;;;;;;31.95;29.42;;;;;;;15.03;100.00;100406.88;5003914;28;20114;-86
2022/06/09 02:37:51;;;;;;;33.80;31.05;;;;;;;14.72;100.00;100413.59;5004677;28;20049;-83
2022/06/09 02:40:18;;;;;;;32.75;30.25;;;;;;;15.11;100.00;100409.16;5007798;28;20049;-84
2022/06/09 02:42:45;;;;;;;33.95;31.02;;;;;;;15.30;100.00;100420.41;5003113;28;20482;-85
2022/06/09 02:45:17;;;;;;;32.85;30.50;;;;;;;15.23;100.00;100417.09;5010349;28;20050;-84
2022/06/09 02:47:44;;;;;;;31.52;29.20;;;;;;;15.38;100.00;100413.84;4995557;28;20050;-86
2022/06/09 02:50:12;;;;;;;32.03;29.58;;;;;;;15.30;100.00;100420.41;5013352;28;20517;-84
2022/06/09 02:52:39;;;;;;;29.02;27.02;;;;;;;14.83;100.00;100418.06;5017345;28;20052;-85
2022/06/09 02:55:08;;;;;;;30.63;28.38;;;;;;;14.49;100.00;100422.47;5005564;28;20497;-85
2022/06/09 02:57:35;;;;;;;33.00;30.63;;;;;;;14.80;100.00;100421.22;5009558;28;20047;-86
2022/06/09 03:00:02;;;;;;;32.30;29.67;;;;;;;14.24;100.00;100422.81;5009867;28;20461;-85
2022/06/09 03:02:29;;;;;;;33.05;30.17;;;;;;;14.34;100.00;100428.34;5007517;28;20049;-83
2022/06/09 03:04:56;;;;;;;36.05;32.00;;;;;;;14.23;100.00;100432.69;5004781;28;20047;-85
2022/06/09 03:07:24;;;;;;;34.20;31.42;;;;;;;14.34;100.00;100423.00;5008522;28;20112;-85
2022/06/09 03:09:53;;;;;;;35.40;32.40;;;;;;;15.04;100.00;100421.91;5005626;28;20045;-86
2022/06/09 03:12:22;;;;;;;32.13;29.63;;;;;;;15.18;100.00;100414.34;5008597;28;20058;-85
2022/06/09 03:14:49;;;;;;;32.78;30.45;;;;;;;15.29;100.00;100416.94;5011586;28;20054;-83
2022/06/09 03:17:16;;;;;;;33.15;30.25;;;;;;;15.38;100.00;100416.53;5007927;28;20054;-83
2022/06/09 03:19:43;;;;;;;33.47;30.95;;;;;;;15.47;100.00;100415.06;5010922;28;20047;-83
2022/06/09 03:22:10;;;;;;;34.88;31.83;;;;;;;15.65;100.00;100412.13;5005831;28;20394;-86
2022/06/09 03:24:37;;;;;;;33.45;30.65;;;;;;;15.49;100.00;100395.03;5003588;28;20057;-85
2022/06/09 03:27:05;;;;;;;35.55;32.42;;;;;;;15.63;100.00;100408.84;5007958;28;20092;-84
2022/06/09 03:29:33;;;;;;;34.28;31.58;;;;;;;15.65;100.00;100396.06;5010798;28;20120;-84
2022/06/09 03:32:00;;;;;;;31.35;29.25;;;;;;;15.55;100.00;100401.25;5005414;28;20069;-83
2022/06/09 03:34:27;;;;;;;31.10;28.88;;;;;;;15.53;100.00;100395.34;5009027;28;20509;-85
2022/06/09 03:36:54;;;;;;;31.42;29.02;;;;;;;15.65;100.00;100404.09;5004974;28;20053;-84
2022/06/09 03:39:21;;;;;;;32.50;30.10;;;;;;;15.74;100.00;100404.50;5007645;28;20050;-84
2022/06/09 03:41:47;;;;;;;33.05;30.85;;;;;;;15.84;100.00;100393.91;5006767;28;20106;-84
2022/06/09 03:44:15;;;;;;;33.60;31.20;;;;;;;15.93;100.00;100392.41;5007224;28;20045;-85
2022/06/09 03:46:43;;;;;;;33.92;31.63;;;;;;;15.88;100.00;100391.53;5008444;28;20406;-83
2022/06/09 03:49:10;;;;;;;33.95;31.27;;;;;;;15.82;100.00;100390.66;5010363;28;20073;-85
2022/06/09 03:51:37;;;;;;;34.20;31.42;;;;;;;15.73;100.00;100401.00;5013020;28;20053;-86
2022/06/09 03:54:04;;;;;;;34.05;31.08;;;;;;;15.77;100.00;100398.66;5003389;28;20060;-86
2022/06/09 03:56:37;;;;;;;31.35;28.85;;;;;;;16.09;100.00;100393.41;5004514;28;20046;-85
2022/06/09 03:59:04;;;;;;;32.90;30.30;;;;;;;15.94;100.00;100398.56;5001906;28;20057;-85
2022/06/09 04:01:31;;;;;;;31.33;28.88;;;;;;;15.94;100.00;100388.66;5009622;28;20488;-85
2022/06/09 04:03:59;;;;;;;32.67;30.27;;;;;;;15.97;100.00;100390.03;5011570;28;20395;-86
2022/06/09 04:06:27;;;;;;;37.92;34.50;;;;;;;16.18;100.00;100399.13;5008039;28;20053;-86
2022/06/09 04:08:54;;;;;;;68.45;51.75;;;;;;;16.14;100.00;100396.16;5003408;28;20062;-84
2022/06/09 04:11:23;;;;;;;57.83;45.63;;;;;;;16.33;100.00;100387.78;5010523;28;20062;-84
2022/06/09 04:13:50;;;;;;;116.78;65.00;;;;;;;16.39;100.00;100387.56;5008020;28;20509;-85
2022/06/09 04:16:23;;;;;;;146.77;73.25;;;;;;;16.57;100.00;100388.28;5001083;28;20050;-83
2022/06/09 04:18:49;;;;;;;76.68;56.03;;;;;;;16.52;100.00;100396.28;5004396;28;20065;-85
2022/06/09 04:21:18;;;;;;;38.13;35.10;;;;;;;16.48;100.00;100399.47;5003873;28;20411;-84
2022/06/09 04:23:45;;;;;;;41.97;39.08;;;;;;;20.10;100.00;100404.38;5004756;28;20045;-84
2022/06/09 04:26:15;;;;;;;30.83;28.38;;;;;;;17.56;100.00;100389.63;5002502;28;20043;-85
2022/06/09 04:28:44;;;;;;;33.53;30.98;;;;;;;16.98;100.00;100394.06;5016541;28;20041;-85
2022/06/09 04:31:12;;;;;;;35.95;33.25;;;;;;;16.98;100.00;100389.50;5009401;28;20041;-84
2022/06/09 04:33:41;;;;;;;37.22;34.53;;;;;;;16.85;100.00;100393.44;5016022;28;20053;-85
2022/06/09 04:36:09;;;;;;;42.47;39.47;;;;;;;17.01;100.00;100380.13;5008678;28;20505;-84
2022/06/09 04:38:38;;;;;;;41.17;37.92;;;;;;;17.10;100.00;100378.59;5007993;28;20049;-83
2022/06/09 04:41:09;;;;;;;47.90;44.08;;;;;;;17.15;100.00;100378.63;5002216;28;20478;-85
2022/06/09 04:43:37;;;;;;;44.80;41.40;;;;;;;17.20;100.00;100375.97;5020276;28;20049;-84
2022/06/09 04:46:04;;;;;;;46.30;42.60;;;;;;;17.27;100.00;100384.59;5002107;28;20047;-85
2022/06/09 04:48:31;;;;;;;37.53;34.72;;;;;;;17.34;100.00;100382.53;5001542;28;20060;-84
2022/06/09 04:50:59;;;;;;;37.70;34.85;;;;;;;17.33;100.00;100378.19;5020114;28;20124;-83
2022/06/09 04:53:26;;;;;;;36.42;33.35;;;;;;;17.72;100.00;100388.63;5001822;28;20141;-84
2022/06/09 04:55:55;;;;;;;35.58;33.17;;;;;;;17.90;100.00;100384.72;5003587;28;20046;-84
2022/06/09 04:58:21;;;;;;;36.45;33.75;;;;;;;18.01;100.00;100390.94;4978911;28;20042;-84
2022/06/09 05:00:48;;;;;;;34.60;32.05;;;;;;;17.80;100.00;100392.75;5002351;28;20059;-84
2022/06/09 05:03:15;;;;;;;33.72;31.23;;;;;;;17.85;100.00;100395.44;5000825;28;20047;-84
2022/06/09 05:05:45;;;;;;;35.00;32.05;;;;;;;17.76;100.00;100399.66;5000795;28;20047;-85
2022/06/09 05:08:12;;;;;;;33.75;31.52;;;;;;;17.77;100.00;100404.81;5006178;28;20502;-83
2022/06/09 05:10:39;;;;;;;34.47;32.05;;;;;;;18.20;100.00;100407.41;5000423;28;20050;-84
2022/06/09 05:13:07;;;;;;;35.28;32.78;;;;;;;18.61;100.00;100421.78;4996567;28;20046;-84
2022/06/09 05:15:37;;;;;;;33.63;31.25;;;;;;;18.58;100.00;100416.09;5012935;28;20057;-84
2022/06/09 05:18:05;;;;;;;37.80;34.85;;;;;;;18.75;100.00;100417.50;5003973;28;20062;-86
2022/06/09 05:20:32;;;;;;;39.08;36.22;;;;;;;18.56;100.00;100415.56;5011956;28;20046;-83
2022/06/09 05:22:59;;;;;;;40.03;36.55;;;;;;;18.84;100.00;100411.59;5014018;28;20046;-83
2022/06/09 05:25:26;;;;;;;40.15;36.92;;;;;;;18.98;100.00;100412.69;5009300;28;20100;-87
2022/06/09 05:27:53;;;;;;;36.75;34.15;;;;;;;18.98;100.00;100402.72;4999642;28;20418;-84
2022/06/09 05:30:24;;;;;;;34.08;31.45;;;;;;;19.11;100.00;100405.94;5004874;28;20399;-86
2022/06/09 05:32:52;;;;;;;36.15;33.08;;;;;;;19.04;100.00;100408.13;5008782;28;20065;-84
2022/06/09 05:35:20;;;;;;;34.13;31.65;;;;;;;19.33;100.00;100411.03;5009084;28;20065;-84
2022/06/09 05:46:04;;;;;;;35.33;32.88;;;;;;;19.96;100.00;100392.56;5009132;28;20505;-85
2022/06/09 05:48:31;;;;;;;35.97;33.47;;;;;;;20.17;100.00;100397.88;5009473;28;20057;-84
2022/06/09 05:50:58;;;;;;;37.30;34.70;;;;;;;20.36;100.00;100393.44;5007085;28;20453;-85
2022/06/09 05:53:27;;;;;;;32.42;30.10;;;;;;;20.14;100.00;100391.16;5014865;28;20057;-84
2022/06/09 05:55:54;;;;;;;34.22;31.88;;;;;;;20.40;100.00;100382.94;5017147;28;20042;-84
2022/06/09 05:58:21;;;;;;;33.67;31.35;;;;;;;20.39;100.00;100390.19;4998627;28;20057;-86
2022/06/09 06:00:48;;;;;;;33.70;31.40;;;;;;;20.47;100.00;100384.22;5005316;28;20046;-85
2022/06/09 06:03:17;;;;;;;31.90;29.80;;;;;;;20.71;100.00;100392.44;5008850;28;20043;-86
2022/06/09 06:08:28;;;;;;;34.25;32.15;;;;;;;20.90;100.00;100392.56;5006099;28;20135;-86
2022/06/09 06:10:56;;;;;;;32.67;30.67;;;;;;;20.99;100.00;100393.56;5016131;28;20061;-86
2022/06/09 06:13:23;;;;;;;32.53;30.45;;;;;;;20.99;100.00;100396.28;5004623;28;20054;-84
2022/06/09 06:15:50;;;;;;;35.28;32.88;;;;;;;21.08;100.00;100377.56;5008154;28;20057;-85
2022/06/09 06:18:19;;;;;;;34.72;32.72;;;;;;;21.45;100.00;100379.69;5004769;28;20046;-87
2022/06/09 06:20:46;;;;;;;32.10;30.17;;;;;;;21.50;100.00;100379.59;5012598;28;20050;-85
2022/06/09 06:23:12;;;;;;;31.52;29.73;;;;;;;21.71;100.00;100382.88;5002618;28;20046;-85
2022/06/09 06:25:39;;;;;;;31.52;29.63;;;;;;;21.99;100.00;100382.28;5010943;28;20050;-85
2022/06/09 06:28:06;;;;;;;32.40;30.30;;;;;;;22.16;100.00;100380.72;5020113;28;20042;-85
2022/06/09 06:30:33;;;;;;;31.20;29.20;;;;;;;22.47;100.00;100384.91;5012920;28;20049;-85
2022/06/09 06:33:00;;;;;;;33.40;31.30;;;;;;;22.82;100.00;100391.69;5013551;28;20052;-84
2022/06/09 06:35:29;;;;;;;29.52;27.42;;;;;;;23.12;100.00;100390.41;5013190;28;20046;-85
2022/06/09 06:37:56;;;;;;;29.40;27.42;;;;;;;22.97;100.00;100383.34;5008356;28;20057;-85
2022/06/09 06:40:23;;;;;;;28.58;26.88;;;;;;;23.08;100.00;100379.34;5008043;28;20054;-87
2022/06/09 06:42:50;;;;;;;28.25;26.65;;;;;;;23.36;100.00;100374.00;5014011;28;20065;-85
2022/06/09 06:45:17;;;;;;;28.90;27.23;;;;;;;23.38;100.00;100379.09;5010475;28;20065;-85
2022/06/09 06:47:44;;;;;;;27.15;25.55;;;;;;;23.50;100.00;100382.13;5018786;28;20065;-85
2022/06/09 06:50:13;;;;;;;27.20;25.60;;;;;;;23.51;100.00;100386.41;5009850;28;20061;-84
2022/06/09 06:52:42;;;;;;;26.10;24.60;;;;;;;23.37;100.00;100372.06;5019121;28;20049;-85
2022/06/09 06:55:14;;;;;;;28.08;25.98;;;;;;;23.59;100.00;100379.50;5010546;28;20054;-88
2022/06/09 06:57:41;;;;;;;;;;;;;;;23.05;100.00;100374.50;5015362;28;20049;-84
2022/06/09 07:00:11;;;;;;;26.02;24.33;;;;;;;23.57;100.00;100370.88;5006762;28;19928;-85
2022/06/09 07:02:38;;;;;;;25.35;23.95;;;;;;;23.96;100.00;100373.06;5010844;28;20045;-84
2022/06/09 07:05:08;;;;;;;26.30;24.77;;;;;;;23.53;100.00;100366.03;5010016;28;20057;-85
2022/06/09 07:07:34;;;;;;;26.52;24.88;;;;;;;23.73;100.00;100370.31;5011825;28;20537;-85
2022/06/09 07:10:05;;;;;;;25.13;23.63;;;;;;;23.70;100.00;100365.50;5009304;28;20049;-84
2022/06/09 07:12:32;;;;;;;25.77;24.38;;;;;;;23.57;100.00;100365.44;5019218;28;20042;-84
2022/06/09 07:14:59;;;;;;;25.50;23.90;;;;;;;23.50;100.00;100371.28;5009368;28;20054;-86
2022/06/09 07:17:26;;;;;;;25.27;23.58;;;;;;;23.46;100.00;100360.22;5006794;28;20046;-84
2022/06/09 07:19:53;;;;;;;26.20;24.35;;;;;;;23.94;100.00;100356.31;5008554;28;20046;-85
2022/06/09 07:22:20;;;;;;;26.60;24.77;;;;;;;24.15;100.00;100351.25;5012050;28;20069;-85
2022/06/09 07:24:48;;;;;;;26.42;24.92;;;;;;;24.28;100.00;100358.56;5015746;28;20056;-85
2022/06/09 07:27:16;;;;;;;25.92;24.52;;;;;;;24.09;100.00;100368.75;5014623;28;20054;-86
2022/06/09 07:29:43;;;;;;;27.10;25.55;;;;;;;24.39;100.00;100356.41;5008931;28;20058;-84
2022/06/09 07:32:10;;;;;;;26.40;24.90;;;;;;;24.36;100.00;100363.25;5007858;28;20061;-85
2022/06/09 07:34:37;;;;;;;25.52;23.90;;;;;;;24.13;100.00;100367.03;5008090;28;20050;-84
2022/06/09 07:37:05;;;;;;;25.20;23.70;;;;;;;24.52;100.00;100365.66;5010341;28;20117;-86
2022/06/09 07:39:33;;;;;;;25.38;24.08;;;;;;;24.48;100.00;100354.59;5004251;28;20046;-85
2022/06/09 07:42:00;;;;;;;24.58;23.17;;;;;;;24.41;100.00;100360.41;5009818;28;20077;-85
2022/06/09 07:44:28;;;;;;;24.80;23.30;;;;;;;24.38;100.00;100358.31;5005645;28;20395;-82
2022/06/09 07:46:56;;;;;;;25.75;24.20;;;;;;;24.14;100.00;100342.28;5014795;28;20049;-84
2022/06/09 07:49:23;;;;;;;25.17;23.60;;;;;;;24.19;100.00;100350.34;5008396;28;20042;-85
2022/06/09 07:51:52;;;;;;;25.70;24.20;;;;;;;24.21;100.00;100348.13;5009695;28;20042;-84
2022/06/09 07:54:20;;;;;;;25.42;23.83;;;;;;;24.72;100.00;100354.31;5017173;28;20046;-86
2022/06/09 07:56:46;;;;;;;30.42;25.30;;;;;;;25.00;100.00;100352.22;4983148;28;20066;-86
2022/06/09 07:59:14;;;;;;;24.90;23.40;;;;;;;25.27;100.00;100348.56;4994868;28;20042;-86
2022/06/09 08:01:46;;;;;;;25.92;24.33;;;;;;;25.05;100.00;100346.66;5016003;28;20050;-86
2022/06/09 08:04:12;;;;;;;24.80;23.45;;;;;;;24.98;100.00;100343.56;5006824;28;20049;-84
2022/06/09 08:06:39;;;;;;;25.45;23.85;;;;;;;25.32;100.00;100336.72;5006791;28;20050;-85
2022/06/09 08:09:07;;;;;;;25.77;24.08;;;;;;;25.32;100.00;100342.97;5005799;28;20061;-85
2022/06/09 08:11:35;;;;;;;24.55;23.15;;;;;;;24.97;100.00;100347.41;5008466;28;20050;-86
2022/06/09 08:14:04;;;;;;;24.10;22.58;;;;;;;25.15;100.00;100339.38;5003921;28;20467;-84
2022/06/09 08:16:32;;;;;;;25.27;23.67;;;;;;;24.70;100.00;100350.28;5012718;28;20049;-86
2022/06/09 08:19:00;;;;;;;26.85;25.15;;;;;;;25.01;100.00;100358.44;5007655;28;20057;-85
2022/06/09 08:21:28;;;;;;;28.02;26.02;;;;;;;25.21;100.00;100340.84;5001997;28;20054;-86
2022/06/09 08:24:02;;;;;;;27.30;25.65;;;;;;;25.11;100.00;100355.47;5008959;28;20061;-84
2022/06/09 08:26:29;;;;;;;29.50;27.80;;;;;;;25.66;100.00;100354.25;4996512;28;20054;-86
2022/06/09 08:28:56;;;;;;;26.65;25.00;;;;;;;25.74;100.00;100357.00;4991776;28;20074;-87
2022/06/09 08:31:23;;;;;;;26.48;24.92;;;;;;;25.43;100.00;100356.28;5000337;28;20058;-86
2022/06/09 08:33:50;;;;;;;26.80;25.20;;;;;;;25.54;100.00;100347.53;5004316;28;20475;-85
2022/06/09 08:36:18;;;;;;;29.00;27.17;;;;;;;25.64;100.00;100349.16;5009919;28;20046;-85
2022/06/09 08:38:46;;;;;;;25.25;23.80;;;;;;;25.55;100.00;100349.13;5001291;28;20062;-84
2022/06/09 08:41:35;;;;;;;26.75;25.05;;;;;;;25.54;100.00;100363.06;5014564;28;20136;-87
2022/06/09 08:44:12;;;;;;;26.00;24.25;;;;;;;25.61;100.00;100343.56;5008513;28;20116;-84
2022/06/09 08:46:46;;;;;;;25.05;23.45;;;;;;;25.42;100.00;100338.34;4993218;28;20134;-84
2022/06/09 08:49:42;;;;;;;25.50;24.08;;;;;;;25.19;100.00;100354.75;5010843;28;20077;-85
2022/06/09 08:52:22;;;;;;;25.00;23.55;;;;;;;25.54;100.00;100344.81;4995837;28;20062;-86
2022/06/09 08:54:51;;;;;;;24.73;23.05;;;;;;;25.68;100.00;100338.44;5005881;28;20046;-86
2022/06/09 08:57:22;;;;;;;24.85;23.05;;;;;;;25.59;100.00;100344.66;5005171;28;20046;-84
2022/06/09 08:59:56;;;;;;;28.20;26.15;;;;;;;25.78;100.00;100336.25;4996849;28;20042;-85
2022/06/09 09:02:31;;;;;;;25.05;23.55;;;;;;;25.66;100.00;100337.94;5007581;28;20046;-84
2022/06/09 09:05:11;;;;;;;25.45;23.95;;;;;;;25.97;100.00;100341.41;5007483;28;20058;-85
2022/06/09 09:07:43;;;;;;;26.42;24.92;;;;;;;25.70;100.00;100331.56;5007074;28;20051;-85
2022/06/09 09:10:18;;;;;;;24.00;22.60;;;;;;;26.30;100.00;100323.84;5012780;28;20050;-85
2022/06/09 09:12:55;;;;;;;26.17;24.60;;;;;;;26.36;100.00;100322.53;5007174;28;20064;-85
2022/06/09 09:15:28;;;;;;;28.15;26.45;;;;;;;26.26;100.00;100320.94;5010166;28;20438;-87
2022/06/09 09:18:16;;;;;;;25.98;24.27;;;;;;;25.79;100.00;100321.50;5009731;28;20050;-85
2022/06/09 09:20:53;;;;;;;26.15;24.45;;;;;;;26.25;100.00;100320.13;5016256;28;20046;-86
2022/06/09 09:23:29;;;;;;;27.33;25.63;;;;;;;26.46;100.00;100314.84;5008921;28;20042;-85
2022/06/09 09:26:02;;;;;;;27.27;25.27;;;;;;;26.50;97.87;100315.00;5010481;28;20042;-87
2022/06/09 09:28:39;;;;;;;24.65;23.15;;;;;;;26.33;100.00;100315.81;5002903;28;20161;-85
2022/06/09 09:31:18;;;;;;;26.27;24.77;;;;;;;26.63;100.00;100319.50;5006791;28;20057;-85
2022/06/09 09:33:51;;;;;;;24.50;23.20;;;;;;;26.27;100.00;100322.53;5007065;28;20046;-86
2022/06/09 09:36:23;;;;;;;25.52;23.92;;;;;;;26.33;100.00;100304.13;5009367;28;20471;-85
2022/06/09 09:39:01;;;;;;;25.75;24.15;;;;;;;27.10;100.00;100307.81;5014897;28;20042;-84
2022/06/09 09:41:33;;;;;;;25.50;23.85;;;;;;;27.25;100.00;100299.13;5012806;28;20077;-86
2022/06/09 09:44:00;;;;;;;;;;;;;;;27.24;100.00;100300.25;5008811;28;20053;-84
2022/06/09 09:46:31;;;;;;;24.55;23.10;;;;;;;27.32;100.00;100301.31;4998403;28;19937;-86
2022/06/09 09:49:15;;;;;;;24.90;23.35;;;;;;;27.31;100.00;100300.53;5012263;28;20053;-86
2022/06/09 09:51:43;;;;;;;25.17;23.75;;;;;;;27.46;100.00;100295.66;4999818;28;20467;-86
2022/06/09 09:54:24;;;;;;;27.48;25.92;;;;;;;27.03;100.00;100291.97;5011183;28;20022;-88
2022/06/09 09:57:06;;;;;;;27.77;26.08;;;;;;;26.81;100.00;100293.03;5014970;28;20049;-86
2022/06/09 09:59:44;;;;;;;25.55;24.15;;;;;;;26.78;100.00;100292.84;5016505;28;20069;-86
2022/06/09 10:08:38;;;;;;;25.33;23.73;;;;;;;27.34;97.84;100280.78;5024992;28;20052;-85
2022/06/09 10:14:00;;;;;;;26.63;25.13;;;;;;;27.32;100.00;100260.44;5013720;28;20045;-85
2022/06/09 10:16:30;;;;;;;28.88;27.27;;;;;;;27.33;99.88;100260.13;5017174;28;20056;-86
2022/06/09 10:19:02;;;;;;;29.80;28.30;;;;;;;26.81;100.00;100265.78;5024334;28;20053;-85
2022/06/09 10:21:48;;;;;;;27.95;26.35;;;;;;;25.91;100.00;100261.06;5023037;28;20053;-84
2022/06/09 10:24:20;;;;;;;29.38;27.70;;;;;;;26.68;100.00;100264.03;5007586;28;20046;-86
2022/06/09 10:26:54;;;;;;;29.30;27.58;;;;;;;27.25;95.62;100263.69;5016216;28;20032;-85
2022/06/09 10:29:28;;;;;;;30.52;28.60;;;;;;;26.80;94.61;100274.25;5018438;28;20058;-85
2022/06/09 10:32:02;;;;;;;30.33;28.48;;;;;;;26.42;96.71;100278.50;5031058;28;20117;-84
2022/06/09 10:34:44;;;;;;;31.00;29.30;;;;;;;26.15;100.00;100266.03;5022077;28;20045;-84
2022/06/09 10:37:19;;;;;;;32.30;30.50;;;;;;;26.57;100.00;100247.25;5022534;28;20045;-87
2022/06/09 10:39:53;;;;;;;29.90;27.40;;;;;;;26.95;100.00;100241.81;5023805;28;20058;-84
2022/06/09 10:42:31;;;;;;;28.63;26.65;;;;;;;27.25;100.00;100243.81;5022750;28;20072;-85
2022/06/09 10:45:19;;;;;;;29.65;27.73;;;;;;;27.42;90.39;100248.38;5024176;28;20409;-85
2022/06/09 10:56:35;;;;;;;29.20;27.30;;;;;;;26.90;97.68;100241.19;5021875;28;20083;-86
2022/06/09 10:59:10;;;;;;;27.20;25.40;;;;;;;27.54;93.28;100237.53;5010351;28;20064;-86
2022/06/09 11:01:39;;;;;;;25.27;23.77;;;;;;;28.13;100.00;100239.31;5016991;28;20042;-84
2022/06/09 11:04:12;;;;;;;26.05;24.35;;;;;;;28.43;87.73;100232.63;5016061;28;20394;-86
2022/06/09 11:06:57;;;;;;;25.75;23.70;;;;;;;27.12;90.10;100242.88;5021122;28;20052;-84
2022/06/09 11:09:34;;;;;;;25.23;23.60;;;;;;;27.02;93.10;100232.34;4996472;28;20069;-86
2022/06/09 11:12:13;;;;;;;28.58;26.55;;;;;;;26.92;91.32;100231.56;5019196;28;20042;-87
2022/06/09 11:15:00;;;;;;;27.48;25.70;;;;;;;27.07;99.17;100218.53;5012670;28;20073;-86
2022/06/09 11:17:47;;;;;;;25.27;23.58;;;;;;;26.97;99.87;100222.44;5009417;28;20060;-87
2022/06/09 11:20:26;;;;;;;28.50;26.55;;;;;;;27.96;95.79;100218.44;5011457;28;20132;-86
2022/06/09 11:23:02;;;;;;;26.63;25.02;;;;;;;27.28;81.08;100202.25;5018021;28;20050;-86
2022/06/09 11:25:45;;;;;;;26.33;24.00;;;;;;;27.43;92.98;100196.22;5017539;28;20109;-84
2022/06/09 11:28:35;;;;;;;27.90;25.92;;;;;;;27.87;100.00;100199.44;5004724;28;20072;-87
2022/06/09 11:31:22;;;;;;;26.50;24.58;;;;;;;28.08;86.78;100191.22;5004408;28;20083;-85
2022/06/09 11:34:11;;;;;;;25.27;23.67;;;;;;;28.27;99.20;100193.44;4993191;28;20058;-85
2022/06/09 11:36:47;;;;;;;25.15;23.45;;;;;;;28.56;93.57;100188.94;5012946;28;20046;-87
2022/06/09 11:39:30;;;;;;;26.30;24.30;;;;;;;28.10;88.72;100191.66;4998230;28;20045;-87
2022/06/09 11:42:02;;;;;;;26.45;24.20;;;;;;;28.21;87.11;100189.31;5002954;28;20057;-85
2022/06/09 11:44:35;;;;;;;26.08;24.38;;;;;;;28.16;97.41;100186.78;5012156;28;20057;-85
2022/06/09 11:47:06;;;;;;;28.42;26.77;;;;;;;27.61;96.77;100181.31;5014235;28;20054;-84
2022/06/09 11:49:44;;;;;;;26.95;25.33;;;;;;;27.64;100.00;100183.38;5022205;28;20061;-86
2022/06/09 11:52:15;;;;;;;26.00;24.00;;;;;;;28.09;99.58;100187.34;5020564;28;20049;-85